This is the latest recevied weather packets stored in our database for station/object WD4LSS. If no packets are shown the sender has not sent any weather packets the latest 10 day(s).
| Time | Temp. | Humidity | Pressure | Rain* | Wind** | Luminosity | Snow |
|---|---|---|---|---|---|---|---|
| 1777878016 | 5.56° C | 86% | 1017.1 hPa | 0 mm | - | - | - |
| 1777875916 | 6.11° C | 85% | 1017.2 hPa | 0 mm | - | - | - |
| 1777875616 | 6.11° C | 85% | 1017.1 hPa | 0 mm | - | - | - |
| 1777874728 | 6.11° C | 84% | 1017.3 hPa | 0 mm | - | - | - |
| 1777874428 | 6.67° C | 84% | 1017.3 hPa | 0 mm | - | - | - |
| 1777871136 | 6.67° C | 81% | 1017.3 hPa | 0 mm | - | - | - |
| 1777868416 | 7.22° C | 80% | 1017 hPa | 0 mm | - | - | - |
| 1777867816 | 7.22° C | 79% | 1017 hPa | 0 mm | - | - | - |
| 1777864237 | 8.33° C | 73% | 1017.2 hPa | 0 mm | - | - | - |
| 1777863617 | 8.89° C | 73% | 1017.3 hPa | 0 mm | - | - | - |
| 1777863337 | 8.89° C | 73% | 1017.3 hPa | 0 mm | - | - | - |
| 1777863017 | 8.89° C | 72% | 1017.3 hPa | 0 mm | - | - | - |
| 1777861217 | 9.44° C | 69% | 1017 hPa | 0 mm | - | - | - |
| 1777860617 | 10° C | 68% | 1016.8 hPa | 0 mm | - | - | - |
| 1777857617 | 11.11° C | 63% | 1016.4 hPa | 0 mm | - | - | - |
| 1777854916 | 13.33° C | 54% | 1015.9 hPa | 0 mm | - | - | - |
| 1777854617 | 13.89° C | 53% | 1015.8 hPa | 0 mm | - | - | - |
| 1777851916 | 17.22° C | 45% | 1015.6 hPa | 0 mm | - | - | - |
| 1777849516 | 18.33° C | 35% | 1015.7 hPa | 0 mm | - | - | - |
| 1777846216 | 19.44° C | 34% | 1016 hPa | 0 mm | - | - | - |
| 1777843216 | 20.56° C | 31% | 1016.7 hPa | 0 mm | - | - | - |
| 1777842316 | 20.56° C | 31% | 1016.8 hPa | 0 mm | - | - | - |
| 1777842036 | 20.56° C | 31% | 1016.7 hPa | 0 mm | - | - | - |
| 1777841716 | 20.56° C | 32% | 1016.9 hPa | 0 mm | - | - | - |
| 1777840836 | 20.56° C | 33% | 1016.9 hPa | 0 mm | - | - | - |
* Rain latest hour (hover to see other rain measurements)
** Current wind speed in m/s (hover to see current wind gust speed)